No particular awareness of the weather is required.    There are no Weather-warnings


Meteo18 Weather Cam more information Meteo18 Weather Cam


Thunder radar more information blitzortung!


Rain radar more information rain snow radar


Visit our other weather sites:

Template documentation
and downloads

And another site



Weather Underground History page Text

Daily Summary for April 21, 2017 Units:  English    Metric   Both
« Previous Day
Next Day »
Daily Weekly Monthly Yearly Custom
  High: Low: Average:
Temperature: 61.9 °F 35.6 °F 49.5 °F
Dew Point: 32.4 °F 25.9 °F 28.9 °F
Humidity: 68 % 28 % 47 %
Wind Speed: 13 mph 0 mph 3.4 mph
Wind Gust: 17 mph - -
Wind:- - SE
Pressure: 30.5 in 30.4 in -
Precipitation: 0 in    
Historical Graphs
 
 
Tabular Data for April 21, 2017
Time Temperature Dew Point Pressure Wind Wind Speed Wind Gust Humidity Rainfall Rate (Hourly)
00:02 44.1 °F 28 °F 30.5 in NNE 10 mph 13 mph 53 % 0 in
00:12 43.9 °F 28.4 °F 30.5 in North 5 mph 13 mph 54 % 0 in
00:17 43.7 °F 28.2 °F 30.5 in NE 1 mph 13 mph 54 % 0 in
00:22 43.2 °F 28 °F 30.5 in NNE 2 mph 13 mph 55 % 0 in
00:27 42.8 °F 28.2 °F 30.5 in NW 2 mph 13 mph 56 % 0 in
00:32 42.4 °F 28.2 °F 30.5 in NNW 3 mph 12 mph 57 % 0 in
00:37 42.3 °F 28 °F 30.5 in NNE 2 mph 12 mph 57 % 0 in
00:42 41.9 °F 28.2 °F 30.5 in North 2 mph 8 mph 58 % 0 in
00:52 41.5 °F 27.9 °F 30.5 in NE 4 mph 10 mph 58 % 0 in
00:57 41.4 °F 28 °F 30.5 in NNE 2 mph 10 mph 59 % 0 in
01:02 41.2 °F 27.9 °F 30.5 in North 4 mph 10 mph 59 % 0 in
01:07 41 °F 27.9 °F 30.5 in North 2 mph 7 mph 59 % 0 in
01:12 40.6 °F 27.9 °F 30.5 in Calm   7 mph 60 % 0 in
01:17 40.5 °F 28 °F 30.5 in North 2 mph 8 mph 61 % 0 in
01:22 40.5 °F 28 °F 30.5 in NE 2 mph 8 mph 61 % 0 in
01:27 40.3 °F 27.9 °F 30.5 in NW 1 mph 6 mph 61 % 0 in
01:32 40.3 °F 27.9 °F 30.5 in NW 1 mph 6 mph 61 % 0 in
01:37 40.3 °F 27.9 °F 30.5 in NNW 3 mph 6 mph 61 % 0 in
01:42 39.9 °F 28 °F 30.5 in NNW 1 mph 6 mph 62 % 0 in
01:47 39.9 °F 27.5 °F 30.5 in North 5 mph 6 mph 61 % 0 in
01:52 40.1 °F 27.7 °F 30.5 in North 3 mph 6 mph 61 % 0 in
01:57 39.9 °F 28 °F 30.5 in North 2 mph 6 mph 62 % 0 in
02:02 39.7 °F 27.9 °F 30.5 in NNW 2 mph 6 mph 62 % 0 in
02:07 39.7 °F 27.9 °F 30.5 in North 2 mph 6 mph 62 % 0 in
02:12 39.6 °F 27.7 °F 30.5 in NNE 2 mph 4 mph 62 % 0 in
02:17 39.6 °F 27.7 °F 30.5 in NNE 4 mph 4 mph 62 % 0 in
02:22 39.4 °F 27.5 °F 30.5 in NE 1 mph 4 mph 62 % 0 in
02:32 39.4 °F 27.9 °F 30.5 in NNW 3 mph 4 mph 63 % 0 in
02:37 39.2 °F 27.3 °F 30.5 in NNE 2 mph 3 mph 62 % 0 in
02:42 38.8 °F 27.3 °F 30.5 in Calm   3 mph 63 % 0 in
02:47 38.7 °F 27.1 °F 30.5 in NE 5 mph 5 mph 63 % 0 in
02:52 38.8 °F 27.3 °F 30.5 in NNE 3 mph 4 mph 63 % 0 in
02:57 38.8 °F 27.3 °F 30.5 in NW 2 mph 5 mph 63 % 0 in
03:02 38.7 °F 27.5 °F 30.5 in NNW 2 mph 5 mph 64 % 0 in
03:12 38.7 °F 27.1 °F 30.5 in North 3 mph 5 mph 63 % 0 in
03:17 38.5 °F 27.3 °F 30.5 in NNW 4 mph 7 mph 64 % 0 in
03:22 38.1 °F 27 °F 30.5 in North 5 mph 7 mph 64 % 0 in
03:32 38.5 °F 27.3 °F 30.5 in NW 3 mph 7 mph 64 % 0 in
03:37 38.5 °F 27 °F 30.5 in North 3 mph 6 mph 63 % 0 in
03:42 38.5 °F 27.3 °F 30.5 in North 2 mph 6 mph 64 % 0 in
03:47 38.1 °F 27 °F 30.5 in NW 1 mph 7 mph 64 % 0 in
03:52 37.9 °F 26.8 °F 30.5 in Calm   7 mph 64 % 0 in
03:57 37.8 °F 26.6 °F 30.5 in Calm   5 mph 64 % 0 in
04:02 37.6 °F 27 °F 30.5 in North 3 mph 5 mph 65 % 0 in
04:12 37 °F 26.4 °F 30.5 in Calm   4 mph 65 % 0 in
04:17 36.9 °F 26.6 °F 30.5 in NW 1 mph 3 mph 66 % 0 in
04:27 37 °F 26.8 °F 30.5 in WNW 2 mph 2 mph 66 % 0 in
04:32 36.7 °F 26.4 °F 30.5 in WNW 2 mph 2 mph 66 % 0 in
04:42 37.2 °F 26.6 °F 30.5 in NW 1 mph 2 mph 65 % 0 in
04:47 37.6 °F 26.6 °F 30.5 in NW 1 mph 2 mph 64 % 0 in
04:52 37.2 °F 26.6 °F 30.5 in NW 2 mph 2 mph 65 % 0 in
04:57 37.6 °F 26.6 °F 30.5 in WNW 2 mph 2 mph 64 % 0 in
05:02 37.8 °F 26.2 °F 30.5 in NW 2 mph 2 mph 63 % 0 in
05:12 37.8 °F 26.2 °F 30.5 in North 3 mph 3 mph 63 % 0 in
05:17 37.8 °F 26.2 °F 30.5 in NW 1 mph 4 mph 63 % 0 in
05:22 37.6 °F 26.6 °F 30.5 in NNW 1 mph 4 mph 64 % 0 in
05:32 37.2 °F 26.2 °F 30.5 in North 2 mph 4 mph 64 % 0 in
05:42 36.9 °F 26.2 °F 30.5 in Calm   3 mph 65 % 0 in
05:47 36.7 °F 26.1 °F 30.5 in North 2 mph 2 mph 65 % 0 in
05:52 36.7 °F 26.1 °F 30.5 in NNE 1 mph 2 mph 65 % 0 in
06:02 36.3 °F 26.1 °F 30.5 in Calm   2 mph 66 % 0 in
06:12 36.5 °F 26.2 °F 30.5 in NNW 2 mph 4 mph 66 % 0 in
06:17 36.7 °F 26.1 °F 30.5 in NNW 1 mph 4 mph 65 % 0 in
06:22 36.9 °F 26.2 °F 30.5 in NNW 2 mph 4 mph 65 % 0 in
06:27 36.9 °F 26.2 °F 30.5 in NNW 1 mph 3 mph 65 % 0 in
06:32 36.9 °F 26.2 °F 30.5 in NNW 2 mph 3 mph 65 % 0 in
06:37 36.3 °F 26.1 °F 30.5 in Calm   3 mph 66 % 0 in
06:42 35.8 °F 25.9 °F 30.5 in Calm   3 mph 67 % 0 in
06:47 35.6 °F 26.1 °F 30.5 in North 2 mph 4 mph 68 % 0 in
06:52 35.8 °F 25.9 °F 30.5 in NNW 1 mph 4 mph 67 % 0 in
06:57 35.8 °F 25.9 °F 30.5 in NNE 1 mph 4 mph 67 % 0 in
07:02 36 °F 26.1 °F 30.5 in North 3 mph 4 mph 67 % 0 in
07:12 36.3 °F 26.1 °F 30.5 in Calm   3 mph 66 % 0 in
07:22 37 °F 26.4 °F 30.5 in NNW 1 mph 3 mph 65 % 0 in
07:32 37.2 °F 26.6 °F 30.5 in Calm   3 mph 65 % 0 in
07:42 37.8 °F 27.1 °F 30.5 in North 1 mph 3 mph 65 % 0 in
07:47 37.8 °F 27.1 °F 30.5 in North 1 mph 3 mph 65 % 0 in
07:52 37.9 °F 27.1 °F 30.5 in Calm   3 mph 65 % 0 in
07:57 38.5 °F 27.7 °F 30.5 in Calm   3 mph 65 % 0 in
08:02 39 °F 28.2 °F 30.5 in North 1 mph 3 mph 65 % 0 in
08:12 39.9 °F 28.4 °F 30.5 in NNE 2 mph 3 mph 63 % 0 in
08:17 40.3 °F 28.8 °F 30.5 in NNE 3 mph 4 mph 63 % 0 in
08:22 40.6 °F 28.6 °F 30.5 in NNE 3 mph 4 mph 62 % 0 in
08:32 41.4 °F 28.6 °F 30.5 in NNE 5 mph 5 mph 60 % 0 in
08:42 41.7 °F 28 °F 30.5 in NNE 3 mph 6 mph 58 % 0 in
08:47 42.3 °F 28.6 °F 30.5 in NNE 4 mph 7 mph 58 % 0 in
08:52 42.3 °F 28 °F 30.5 in NE 4 mph 7 mph 57 % 0 in
08:57 42.4 °F 28.2 °F 30.5 in NNE 5 mph 8 mph 57 % 0 in
09:02 43.2 °F 29.8 °F 30.5 in NNE 3 mph 8 mph 59 % 0 in
09:12 43.9 °F 29.7 °F 30.5 in ENE 6 mph 8 mph 57 % 0 in
09:17 44.2 °F 28.6 °F 30.5 in NE 8 mph 8 mph 54 % 0 in
09:22 44.2 °F 28.6 °F 30.5 in NE 8 mph 8 mph 54 % 0 in
09:27 44.4 °F 29.7 °F 30.5 in NNE 7 mph 11 mph 56 % 0 in
09:32 45 °F 29.8 °F 30.5 in North 4 mph 11 mph 55 % 0 in
09:42 45.5 °F 30.2 °F 30.5 in NNE 3 mph 10 mph 55 % 0 in
09:52 46.2 °F 30.6 °F 30.5 in NNE 7 mph 8 mph 54 % 0 in
09:57 46.8 °F 30.9 °F 30.5 in NE 6 mph 9 mph 54 % 0 in
10:02 47.1 °F 30.9 °F 30.5 in North 6 mph 9 mph 53 % 0 in
10:12 47.7 °F 30 °F 30.5 in NE 8 mph 8 mph 50 % 0 in
10:17 48 °F 29.8 °F 30.5 in NE 6 mph 10 mph 49 % 0 in
10:22 48.4 °F 29.1 °F 30.5 in North 5 mph 10 mph 47 % 0 in
10:32 48.9 °F 30.6 °F 30.5 in NNE 4 mph 10 mph 49 % 0 in
10:42 49.8 °F 30.9 °F 30.5 in NE 3 mph 11 mph 48 % 0 in
10:52 49.8 °F 30.4 °F 30.5 in ENE 7 mph 11 mph 47 % 0 in
11:02 50.5 °F 30.6 °F 30.5 in NNE 3 mph 12 mph 46 % 0 in
11:12 51.3 °F 30.6 °F 30.5 in NNW 5 mph 12 mph 45 % 0 in
11:17 52 °F 30.7 °F 30.5 in NE 6 mph 12 mph 44 % 0 in
11:22 52 °F 29.7 °F 30.5 in NNE 13 mph 13 mph 42 % 0 in
11:32 52.7 °F 29.7 °F 30.5 in NE 6 mph 15 mph 41 % 0 in
11:42 53.1 °F 28 °F 30.5 in NE 6 mph 15 mph 38 % 0 in
11:52 53.4 °F 28.4 °F 30.5 in ENE 5 mph 14 mph 38 % 0 in
12:02 53.8 °F 26.8 °F 30.5 in NE 2 mph 16 mph 35 % 0 in
12:12 54.9 °F 28.4 °F 30.5 in NE 12 mph 14 mph 36 % 0 in
12:17 54.7 °F 29.5 °F 30.5 in NNE 5 mph 15 mph 38 % 0 in
12:22 55 °F 29.8 °F 30.5 in NE 4 mph 17 mph 38 % 0 in
12:27 54.9 °F 27 °F 30.5 in ENE 5 mph 17 mph 34 % 0 in
12:32 55.6 °F 28.4 °F 30.5 in NNE 9 mph 17 mph 35 % 0 in
12:37 55.8 °F 29.1 °F 30.5 in ENE 4 mph 17 mph 36 % 0 in
12:42 55.8 °F 27.9 °F 30.5 in NE 6 mph 17 mph 34 % 0 in
12:47 55.9 °F 28.8 °F 30.5 in ESE 5 mph 15 mph 35 % 0 in
12:52 56.5 °F 29.1 °F 30.5 in ENE 7 mph 15 mph 35 % 0 in
12:57 56.3 °F 29.7 °F 30.5 in NNE 5 mph 15 mph 36 % 0 in
13:02 56.7 °F 30 °F 30.5 in ENE 8 mph 15 mph 36 % 0 in
13:07 56.8 °F 29.5 °F 30.5 in NNE 12 mph 12 mph 35 % 0 in
13:12 56.7 °F 30 °F 30.5 in ENE 4 mph 11 mph 36 % 0 in
13:17 56.5 °F 27 °F 30.5 in ENE 6 mph 15 mph 32 % 0 in
13:22 57 °F 30.4 °F 30.5 in ENE 6 mph 15 mph 36 % 0 in
13:27 57 °F 28.9 °F 30.5 in North 12 mph 15 mph 34 % 0 in
13:32 56.8 °F 27.3 °F 30.5 in NE 7 mph 15 mph 32 % 0 in
13:37 57 °F 29.7 °F 30.5 in NE 7 mph 15 mph 35 % 0 in
13:42 57.2 °F 29.1 °F 30.5 in NNE 8 mph 15 mph 34 % 0 in
13:52 57.6 °F 27.9 °F 30.5 in ENE 6 mph 14 mph 32 % 0 in
13:57 57 °F 27.5 °F 30.5 in NE 6 mph 14 mph 32 % 0 in
14:02 57.4 °F 27 °F 30.5 in North 6 mph 14 mph 31 % 0 in
14:12 57.7 °F 27.3 °F 30.5 in ENE 4 mph 14 mph 31 % 0 in
14:17 57.7 °F 27.3 °F 30.5 in NE 6 mph 14 mph 31 % 0 in
14:22 58.1 °F 28.4 °F 30.5 in NW 1 mph 14 mph 32 % 0 in
14:27 58.5 °F 30.2 °F 30.5 in ENE 5 mph 17 mph 34 % 0 in
14:32 58.6 °F 28 °F 30.5 in NE 9 mph 17 mph 31 % 0 in
14:42 59.2 °F 29.3 °F 30.5 in ENE 8 mph 13 mph 32 % 0 in
14:47 59.4 °F 28.8 °F 30.5 in NNE 6 mph 12 mph 31 % 0 in
14:52 58.8 °F 26.6 °F 30.5 in North 5 mph 12 mph 29 % 0 in
14:57 59.4 °F 28.8 °F 30.5 in East 8 mph 11 mph 31 % 0 in
15:02 59.4 °F 26.2 °F 30.5 in SE 2 mph 11 mph 28 % 0 in
15:07 59.5 °F 28.9 °F 30.5 in ENE 6 mph 10 mph 31 % 0 in
15:12 59.5 °F 27.3 °F 30.5 in ENE 5 mph 10 mph 29 % 0 in
15:17 59.4 °F 29.5 °F 30.4 in NNE 8 mph 12 mph 32 % 0 in
15:22 60.1 °F 28.6 °F 30.4 in East 8 mph 12 mph 30 % 0 in
15:27 59.9 °F 27.5 °F 30.4 in ENE 4 mph 14 mph 29 % 0 in
15:32 60.1 °F 28.6 °F 30.4 in NNE 4 mph 14 mph 30 % 0 in
15:37 60.3 °F 30.2 °F 30.4 in ENE 8 mph 11 mph 32 % 0 in
15:42 60.4 °F 30.4 °F 30.4 in ENE 4 mph 11 mph 32 % 0 in
15:47 60.4 °F 28.9 °F 30.4 in SE 1 mph 12 mph 30 % 0 in
15:52 60.6 °F 29.8 °F 30.4 in East 2 mph 12 mph 31 % 0 in
15:57 60.6 °F 28.9 °F 30.4 in East 4 mph 12 mph 30 % 0 in
16:02 60.6 °F 28.9 °F 30.4 in NE 4 mph 12 mph 30 % 0 in
16:12 60.8 °F 29.1 °F 30.4 in ENE 5 mph 10 mph 30 % 0 in
16:17 61.2 °F 29.5 °F 30.4 in NNE 7 mph 11 mph 30 % 0 in
16:22 60.6 °F 27.3 °F 30.4 in Calm   11 mph 28 % 0 in
16:27 60.6 °F 29.8 °F 30.4 in NNE 9 mph 13 mph 31 % 0 in
16:32 61 °F 30.2 °F 30.4 in Calm   13 mph 31 % 0 in
16:37 61.3 °F 28.8 °F 30.4 in Calm   13 mph 29 % 0 in
16:42 61.3 °F 28.8 °F 30.4 in NNE 5 mph 13 mph 29 % 0 in
16:47 61 °F 29.3 °F 30.4 in NE 5 mph 13 mph 30 % 0 in
16:52 61.5 °F 31.5 °F 30.4 in NE 2 mph 13 mph 32 % 0 in
17:02 61.7 °F 29.1 °F 30.4 in NNE 1 mph 13 mph 29 % 0 in
17:12 61.3 °F 28.8 °F 30.4 in ENE 5 mph 9 mph 29 % 0 in
17:17 61.2 °F 29.5 °F 30.4 in North 2 mph 11 mph 30 % 0 in
17:22 61.2 °F 29.5 °F 30.4 in North 3 mph 11 mph 30 % 0 in
17:32 61.5 °F 29.8 °F 30.4 in ENE 3 mph 11 mph 30 % 0 in
17:37 61.5 °F 29.8 °F 30.4 in East 6 mph 9 mph 30 % 0 in
17:42 61.9 °F 30.9 °F 30.4 in ENE 6 mph 9 mph 31 % 0 in
17:52 61.3 °F 29.7 °F 30.4 in ENE 3 mph 9 mph 30 % 0 in
18:02 61.5 °F 29.8 °F 30.4 in NE 5 mph 11 mph 30 % 0 in
18:07 61.9 °F 31.6 °F 30.4 in ENE 2 mph 11 mph 32 % 0 in
18:12 61.5 °F 28.9 °F 30.4 in Calm   11 mph 29 % 0 in
18:17 61.5 °F 29.8 °F 30.4 in NE 8 mph 11 mph 30 % 0 in
18:22 61.5 °F 29.8 °F 30.4 in North 3 mph 11 mph 30 % 0 in
18:32 61.5 °F 29.8 °F 30.4 in ENE 6 mph 10 mph 30 % 0 in
18:37 61.2 °F 30.2 °F 30.4 in NE 5 mph 10 mph 31 % 0 in
18:42 61.2 °F 31.1 °F 30.4 in NNW 2 mph 10 mph 32 % 0 in
18:52 61.5 °F 31.5 °F 30.4 in NE 4 mph 9 mph 32 % 0 in
18:57 61.5 °F 30.6 °F 30.4 in NE 3 mph 7 mph 31 % 0 in
19:02 61.2 °F 30.2 °F 30.4 in NNE 2 mph 7 mph 31 % 0 in
19:07 61.2 °F 30.2 °F 30.4 in NE 6 mph 8 mph 31 % 0 in
19:12 61.2 °F 29.5 °F 30.4 in NE 2 mph 8 mph 30 % 0 in
19:17 61 °F 29.3 °F 30.4 in NNE 3 mph 8 mph 30 % 0 in
19:22 61 °F 29.3 °F 30.4 in NNE 4 mph 8 mph 30 % 0 in
19:27 60.6 °F 29.8 °F 30.4 in NE 6 mph 7 mph 31 % 0 in
19:32 60.4 °F 29.7 °F 30.4 in NE 4 mph 7 mph 31 % 0 in
19:42 60.4 °F 30.4 °F 30.4 in NE 1 mph 8 mph 32 % 0 in
19:52 60.3 °F 30.2 °F 30.4 in NE 3 mph 6 mph 32 % 0 in
19:57 59.9 °F 30.7 °F 30.4 in NNE 2 mph 6 mph 33 % 0 in
20:02 59.7 °F 29.8 °F 30.4 in NE 2 mph 6 mph 32 % 0 in
20:07 59.5 °F 30.4 °F 30.4 in NNE 3 mph 6 mph 33 % 0 in
20:12 59.5 °F 30.4 °F 30.4 in NE 2 mph 6 mph 33 % 0 in
20:17 59.4 °F 30.2 °F 30.4 in NNE 3 mph 4 mph 33 % 0 in
20:22 59.2 °F 30.7 °F 30.4 in NE 3 mph 4 mph 34 % 0 in
20:32 57.9 °F 31.1 °F 30.4 in NE 1 mph 4 mph 36 % 0 in
20:37 57.4 °F 30.6 °F 30.4 in NNE 3 mph 4 mph 36 % 0 in
20:42 57 °F 29.7 °F 30.4 in NE 3 mph 4 mph 35 % 0 in
20:52 56.1 °F 30.2 °F 30.4 in NNE 3 mph 4 mph 37 % 0 in
20:57 55.6 °F 31.1 °F 30.4 in Calm   4 mph 39 % 0 in
21:02 55 °F 31.1 °F 30.4 in Calm   4 mph 40 % 0 in
21:07 54.7 °F 30.9 °F 30.4 in Calm   4 mph 40 % 0 in
21:17 54 °F 30.7 °F 30.4 in NNW 1 mph 2 mph 41 % 0 in
21:22 53.4 °F 30.9 °F 30.4 in NNW 1 mph 2 mph 42 % 0 in
21:27 52.9 °F 30.4 °F 30.4 in NNW 1 mph 4 mph 42 % 0 in
21:32 52.7 °F 30.7 °F 30.4 in Calm   4 mph 43 % 0 in
21:37 52.3 °F 31.1 °F 30.4 in NNW 1 mph 4 mph 44 % 0 in
21:42 52.2 °F 30.9 °F 30.4 in NNW 1 mph 4 mph 44 % 0 in
21:52 51.6 °F 30.4 °F 30.4 in NNW 1 mph 3 mph 44 % 0 in
21:57 51.4 °F 30.7 °F 30.4 in Calm   2 mph 45 % 0 in
22:02 51.3 °F 30.6 °F 30.4 in NNW 1 mph 2 mph 45 % 0 in
22:07 51.1 °F 31.1 °F 30.4 in NNW 1 mph 2 mph 46 % 0 in
22:12 51.1 °F 31.1 °F 30.4 in NNW 2 mph 2 mph 46 % 0 in
22:17 51.1 °F 31.6 °F 30.4 in North 2 mph 2 mph 47 % 0 in
22:22 50.5 °F 31.6 °F 30.4 in NNW 1 mph 2 mph 48 % 0 in
22:32 50.2 °F 31.8 °F 30.4 in NNW 1 mph 4 mph 49 % 0 in
22:37 50.4 °F 32 °F 30.4 in NNW 2 mph 3 mph 49 % 0 in
22:42 50.4 °F 32 °F 30.4 in NNW 2 mph 3 mph 49 % 0 in
22:47 50 °F 32.2 °F 30.4 in NNW 1 mph 3 mph 50 % 0 in
22:52 49.8 °F 32 °F 30.4 in NNW 1 mph 3 mph 50 % 0 in
22:57 49.6 °F 31.8 °F 30.4 in NNW 1 mph 3 mph 50 % 0 in
23:02 49.6 °F 32.2 °F 30.4 in Calm   3 mph 51 % 0 in
23:12 49.3 °F 32.4 °F 30.4 in NW 2 mph 3 mph 52 % 0 in
23:17 49.3 °F 32.4 °F 30.4 in NNE 2 mph 3 mph 52 % 0 in
23:22 49.3 °F 32.4 °F 30.4 in North 1 mph 3 mph 52 % 0 in
23:27 49.5 °F 32 °F 30.4 in North 3 mph 4 mph 51 % 0 in
23:32 49.5 °F 32 °F 30.4 in North 2 mph 4 mph 51 % 0 in
23:42 49.1 °F 32.2 °F 30.4 in NE 3 mph 4 mph 52 % 0 in
23:47 48.9 °F 32 °F 30.4 in NE 4 mph 5 mph 52 % 0 in
23:52 48.7 °F 31.8 °F 30.4 in NNW 3 mph 5 mph 52 % 0 in
23:57 48.7 °F 31.8 °F 30.4 in NE 4 mph 5 mph 52 % 0 in
Meteo18
Compliments of Weather Underground - 4 mb

Script developed by  Jim McMurry - jmcmurry@mwt.net Adapted for the template by  Wim van der Kuil - Leuven-Template.eu

You find our weather info also at:

European Weather Network

Weather Underground

Equipment we use:

Weather-station
Davis Vue

Weather-program
Meteohub

Weather-server
Raspberry PI 2 B+

Provider
1 and 1

Davis Vue

Meteohub

Raspberry PI 2 B+

1 and 1